sensor_id;sensor_type;location;lat;lon;timestamp;temperature;humidity
12060;DHT22;6091;51.432;6.880;2022-12-18T00:03:55;18.60;28.30
12060;DHT22;6091;51.432;6.880;2022-12-18T00:06:24;18.60;28.30
12060;DHT22;6091;51.432;6.880;2022-12-18T00:08:54;18.60;28.30
12060;DHT22;6091;51.432;6.880;2022-12-18T00:11:25;18.60;28.30
12060;DHT22;6091;51.432;6.880;2022-12-18T00:13:55;18.60;28.30
12060;DHT22;6091;51.432;6.880;2022-12-18T00:16:25;18.60;28.40
12060;DHT22;6091;51.432;6.880;2022-12-18T00:18:55;18.50;28.30
12060;DHT22;6091;51.432;6.880;2022-12-18T00:21:23;18.50;28.30
12060;DHT22;6091;51.432;6.880;2022-12-18T00:23:51;18.50;28.30
12060;DHT22;6091;51.432;6.880;2022-12-18T00:26:27;18.50;28.30
12060;DHT22;6091;51.432;6.880;2022-12-18T00:28:59;18.50;28.40
12060;DHT22;6091;51.432;6.880;2022-12-18T00:31:28;18.50;28.40
12060;DHT22;6091;51.432;6.880;2022-12-18T00:33:56;18.40;28.30
12060;DHT22;6091;51.432;6.880;2022-12-18T00:36:29;18.50;28.40
12060;DHT22;6091;51.432;6.880;2022-12-18T00:38:58;18.40;28.40
12060;DHT22;6091;51.432;6.880;2022-12-18T00:41:28;18.40;28.40
12060;DHT22;6091;51.432;6.880;2022-12-18T00:44:15;18.40;28.40
12060;DHT22;6091;51.432;6.880;2022-12-18T00:46:44;18.40;28.40
12060;DHT22;6091;51.432;6.880;2022-12-18T00:49:11;18.40;28.40
12060;DHT22;6091;51.432;6.880;2022-12-18T00:51:39;18.40;28.40
12060;DHT22;6091;51.432;6.880;2022-12-18T00:54:06;18.40;28.40
12060;DHT22;6091;51.432;6.880;2022-12-18T00:56:35;18.40;28.40
12060;DHT22;6091;51.432;6.880;2022-12-18T00:59:14;18.40;28.40
12060;DHT22;6091;51.432;6.880;2022-12-18T01:01:41;18.40;28.40
12060;DHT22;6091;51.432;6.880;2022-12-18T01:04:09;18.40;28.40
12060;DHT22;6091;51.432;6.880;2022-12-18T01:06:36;18.30;28.30
12060;DHT22;6091;51.432;6.880;2022-12-18T01:09:03;18.30;28.30
12060;DHT22;6091;51.432;6.880;2022-12-18T01:11:31;18.30;28.40
12060;DHT22;6091;51.432;6.880;2022-12-18T01:13:57;18.30;28.40
12060;DHT22;6091;51.432;6.880;2022-12-18T01:16:25;18.30;28.40
12060;DHT22;6091;51.432;6.880;2022-12-18T01:18:53;18.30;28.40
12060;DHT22;6091;51.432;6.880;2022-12-18T01:21:21;18.30;28.40
12060;DHT22;6091;51.432;6.880;2022-12-18T01:23:56;18.30;28.40
12060;DHT22;6091;51.432;6.880;2022-12-18T01:26:25;18.30;28.50
12060;DHT22;6091;51.432;6.880;2022-12-18T01:28:54;18.30;28.40
12060;DHT22;6091;51.432;6.880;2022-12-18T01:31:25;18.20;28.40
12060;DHT22;6091;51.432;6.880;2022-12-18T01:33:55;18.20;28.40
12060;DHT22;6091;51.432;6.880;2022-12-18T01:36:31;18.20;28.40
12060;DHT22;6091;51.432;6.880;2022-12-18T01:39:01;18.20;28.50
12060;DHT22;6091;51.432;6.880;2022-12-18T01:41:30;18.20;28.40
12060;DHT22;6091;51.432;6.880;2022-12-18T01:50:21;18.20;28.60
12060;DHT22;6091;51.432;6.880;2022-12-18T01:53:10;18.20;28.60
12060;DHT22;6091;51.432;6.880;2022-12-18T01:55:50;18.20;28.70
12060;DHT22;6091;51.432;6.880;2022-12-18T01:58:29;18.20;28.70
12060;DHT22;6091;51.432;6.880;2022-12-18T02:01:10;18.20;28.70
12060;DHT22;6091;51.432;6.880;2022-12-18T02:03:39;18.20;28.60
12060;DHT22;6091;51.432;6.880;2022-12-18T02:06:16;18.20;28.60
12060;DHT22;6091;51.432;6.880;2022-12-18T02:09:05;18.20;28.60
12060;DHT22;6091;51.432;6.880;2022-12-18T02:11:39;18.30;28.60
12060;DHT22;6091;51.432;6.880;2022-12-18T02:17:11;18.20;28.60
12060;DHT22;6091;51.432;6.880;2022-12-18T02:20:21;18.30;28.60
12060;DHT22;6091;51.432;6.880;2022-12-18T02:28:49;18.30;28.60
12060;DHT22;6091;51.432;6.880;2022-12-18T02:31:36;18.30;28.60
12060;DHT22;6091;51.432;6.880;2022-12-18T02:34:10;18.30;29.10
12060;DHT22;6091;51.432;6.880;2022-12-18T02:36:41;18.20;28.50
12060;DHT22;6091;51.432;6.880;2022-12-18T02:39:11;18.20;28.50
12060;DHT22;6091;51.432;6.880;2022-12-18T02:41:40;18.20;28.50
12060;DHT22;6091;51.432;6.880;2022-12-18T02:44:11;18.10;28.40
12060;DHT22;6091;51.432;6.880;2022-12-18T02:46:48;18.10;28.50
12060;DHT22;6091;51.432;6.880;2022-12-18T02:57:55;18.00;28.50
12060;DHT22;6091;51.432;6.880;2022-12-18T03:00:31;18.00;28.50
12060;DHT22;6091;51.432;6.880;2022-12-18T03:03:46;18.00;28.50
12060;DHT22;6091;51.432;6.880;2022-12-18T03:06:41;18.00;28.60
12060;DHT22;6091;51.432;6.880;2022-12-18T03:09:20;18.00;28.60
12060;DHT22;6091;51.432;6.880;2022-12-18T03:12:34;18.00;28.50
12060;DHT22;6091;51.432;6.880;2022-12-18T03:17:51;18.00;28.50
12060;DHT22;6091;51.432;6.880;2022-12-18T03:20:23;18.00;28.60
12060;DHT22;6091;51.432;6.880;2022-12-18T03:22:57;18.00;28.50
12060;DHT22;6091;51.432;6.880;2022-12-18T03:25:39;18.00;28.50
12060;DHT22;6091;51.432;6.880;2022-12-18T03:28:17;17.90;28.50
12060;DHT22;6091;51.432;6.880;2022-12-18T03:30:50;18.00;28.60
12060;DHT22;6091;51.432;6.880;2022-12-18T03:33:29;17.90;28.50
12060;DHT22;6091;51.432;6.880;2022-12-18T03:36:05;17.90;28.50
12060;DHT22;6091;51.432;6.880;2022-12-18T03:38:32;17.90;28.50
12060;DHT22;6091;51.432;6.880;2022-12-18T03:41:14;17.90;28.50
12060;DHT22;6091;51.432;6.880;2022-12-18T03:44:03;17.90;28.60
12060;DHT22;6091;51.432;6.880;2022-12-18T03:50:12;17.90;28.60
12060;DHT22;6091;51.432;6.880;2022-12-18T03:53:00;17.90;28.60
12060;DHT22;6091;51.432;6.880;2022-12-18T03:55:53;17.80;28.50
12060;DHT22;6091;51.432;6.880;2022-12-18T03:58:24;17.80;28.50
12060;DHT22;6091;51.432;6.880;2022-12-18T04:00:55;17.80;28.50
12060;DHT22;6091;51.432;6.880;2022-12-18T04:03:26;17.80;28.50
12060;DHT22;6091;51.432;6.880;2022-12-18T04:05:59;17.80;28.50
12060;DHT22;6091;51.432;6.880;2022-12-18T04:08:27;17.80;28.50
12060;DHT22;6091;51.432;6.880;2022-12-18T04:10:59;17.80;28.50
12060;DHT22;6091;51.432;6.880;2022-12-18T04:13:33;17.80;28.60
12060;DHT22;6091;51.432;6.880;2022-12-18T04:16:02;17.80;28.60
12060;DHT22;6091;51.432;6.880;2022-12-18T04:18:30;17.80;28.60
12060;DHT22;6091;51.432;6.880;2022-12-18T04:20:57;17.80;29.10
12060;DHT22;6091;51.432;6.880;2022-12-18T04:23:24;17.80;28.70
12060;DHT22;6091;51.432;6.880;2022-12-18T04:25:51;17.80;28.70
12060;DHT22;6091;51.432;6.880;2022-12-18T04:28:18;17.80;28.70
12060;DHT22;6091;51.432;6.880;2022-12-18T04:30:45;17.80;28.70
12060;DHT22;6091;51.432;6.880;2022-12-18T04:33:13;17.80;28.70
12060;DHT22;6091;51.432;6.880;2022-12-18T04:35:41;17.80;28.70
12060;DHT22;6091;51.432;6.880;2022-12-18T04:38:09;17.80;28.70
12060;DHT22;6091;51.432;6.880;2022-12-18T04:40:37;17.90;28.80
12060;DHT22;6091;51.432;6.880;2022-12-18T04:43:06;17.90;28.70
12060;DHT22;6091;51.432;6.880;2022-12-18T04:45:33;17.90;28.70
12060;DHT22;6091;51.432;6.880;2022-12-18T04:48:01;17.80;28.60
12060;DHT22;6091;51.432;6.880;2022-12-18T04:50:30;17.90;28.70
12060;DHT22;6091;51.432;6.880;2022-12-18T04:52:57;17.80;28.60
12060;DHT22;6091;51.432;6.880;2022-12-18T04:55:24;17.90;28.70
12060;DHT22;6091;51.432;6.880;2022-12-18T04:57:51;17.90;28.60
12060;DHT22;6091;51.432;6.880;2022-12-18T05:00:18;17.90;28.60
12060;DHT22;6091;51.432;6.880;2022-12-18T05:02:46;17.80;28.60
12060;DHT22;6091;51.432;6.880;2022-12-18T05:05:13;17.80;28.60
12060;DHT22;6091;51.432;6.880;2022-12-18T05:07:40;17.80;28.90
12060;DHT22;6091;51.432;6.880;2022-12-18T05:10:08;17.80;28.60
12060;DHT22;6091;51.432;6.880;2022-12-18T05:12:36;17.80;28.60
12060;DHT22;6091;51.432;6.880;2022-12-18T05:15:23;17.80;28.60
12060;DHT22;6091;51.432;6.880;2022-12-18T05:17:51;17.80;28.60
12060;DHT22;6091;51.432;6.880;2022-12-18T05:20:18;17.80;28.60
12060;DHT22;6091;51.432;6.880;2022-12-18T05:22:45;17.80;28.60
12060;DHT22;6091;51.432;6.880;2022-12-18T05:25:12;17.80;28.60
12060;DHT22;6091;51.432;6.880;2022-12-18T05:27:39;17.70;28.60
12060;DHT22;6091;51.432;6.880;2022-12-18T05:30:10;17.80;28.90
12060;DHT22;6091;51.432;6.880;2022-12-18T05:32:38;17.70;28.60
12060;DHT22;6091;51.432;6.880;2022-12-18T05:35:07;17.70;28.60
12060;DHT22;6091;51.432;6.880;2022-12-18T05:37:36;17.70;28.60
12060;DHT22;6091;51.432;6.880;2022-12-18T05:40:09;17.70;28.60
12060;DHT22;6091;51.432;6.880;2022-12-18T05:42:37;17.70;28.60
12060;DHT22;6091;51.432;6.880;2022-12-18T05:45:04;17.70;28.60
12060;DHT22;6091;51.432;6.880;2022-12-18T05:47:32;17.70;28.60
12060;DHT22;6091;51.432;6.880;2022-12-18T05:49:59;17.70;28.60
12060;DHT22;6091;51.432;6.880;2022-12-18T05:52:26;17.70;28.60
12060;DHT22;6091;51.432;6.880;2022-12-18T05:54:53;17.70;28.80
12060;DHT22;6091;51.432;6.880;2022-12-18T05:57:20;17.60;28.60
12060;DHT22;6091;51.432;6.880;2022-12-18T05:59:47;17.60;28.60
12060;DHT22;6091;51.432;6.880;2022-12-18T06:02:14;17.60;28.60
12060;DHT22;6091;51.432;6.880;2022-12-18T06:04:41;17.60;28.60
12060;DHT22;6091;51.432;6.880;2022-12-18T06:07:08;17.60;28.60
12060;DHT22;6091;51.432;6.880;2022-12-18T06:09:35;17.60;28.60
12060;DHT22;6091;51.432;6.880;2022-12-18T06:12:02;17.60;28.70
12060;DHT22;6091;51.432;6.880;2022-12-18T06:14:29;17.60;28.70
12060;DHT22;6091;51.432;6.880;2022-12-18T06:16:56;17.60;28.80
12060;DHT22;6091;51.432;6.880;2022-12-18T06:19:23;17.60;28.80
12060;DHT22;6091;51.432;6.880;2022-12-18T06:21:50;17.60;28.80
12060;DHT22;6091;51.432;6.880;2022-12-18T06:24:17;17.60;28.90
12060;DHT22;6091;51.432;6.880;2022-12-18T06:26:44;17.60;28.80
12060;DHT22;6091;51.432;6.880;2022-12-18T06:29:11;17.60;28.90
12060;DHT22;6091;51.432;6.880;2022-12-18T06:31:38;17.70;28.90
12060;DHT22;6091;51.432;6.880;2022-12-18T06:34:05;17.70;28.90
12060;DHT22;6091;51.432;6.880;2022-12-18T06:36:32;17.70;28.80
12060;DHT22;6091;51.432;6.880;2022-12-18T06:38:59;17.70;28.80
12060;DHT22;6091;51.432;6.880;2022-12-18T06:41:26;17.70;28.80
12060;DHT22;6091;51.432;6.880;2022-12-18T06:43:53;17.70;28.80
12060;DHT22;6091;51.432;6.880;2022-12-18T06:46:25;17.70;28.80
12060;DHT22;6091;51.432;6.880;2022-12-18T06:48:52;17.80;28.80
12060;DHT22;6091;51.432;6.880;2022-12-18T06:51:21;17.80;28.80
12060;DHT22;6091;51.432;6.880;2022-12-18T06:53:49;17.80;29.20
12060;DHT22;6091;51.432;6.880;2022-12-18T06:56:16;17.80;28.70
12060;DHT22;6091;51.432;6.880;2022-12-18T06:58:43;17.70;28.70
12060;DHT22;6091;51.432;6.880;2022-12-18T07:01:11;17.70;28.70
12060;DHT22;6091;51.432;6.880;2022-12-18T07:03:40;17.70;28.70
12060;DHT22;6091;51.432;6.880;2022-12-18T07:06:17;17.70;28.70
12060;DHT22;6091;51.432;6.880;2022-12-18T07:08:47;17.70;28.70
12060;DHT22;6091;51.432;6.880;2022-12-18T07:11:16;17.70;28.70
12060;DHT22;6091;51.432;6.880;2022-12-18T07:13:44;17.70;28.70
12060;DHT22;6091;51.432;6.880;2022-12-18T07:16:19;17.70;28.70
12060;DHT22;6091;51.432;6.880;2022-12-18T07:18:52;17.60;28.70
12060;DHT22;6091;51.432;6.880;2022-12-18T07:21:21;17.60;28.60
12060;DHT22;6091;51.432;6.880;2022-12-18T07:23:49;17.60;28.80
12060;DHT22;6091;51.432;6.880;2022-12-18T07:26:18;17.50;28.60
12060;DHT22;6091;51.432;6.880;2022-12-18T07:28:46;17.50;28.60
12060;DHT22;6091;51.432;6.880;2022-12-18T07:31:20;17.50;28.60
12060;DHT22;6091;51.432;6.880;2022-12-18T07:33:51;17.50;28.70
12060;DHT22;6091;51.432;6.880;2022-12-18T07:36:19;17.40;28.60
12060;DHT22;6091;51.432;6.880;2022-12-18T07:38:49;17.50;28.70
12060;DHT22;6091;51.432;6.880;2022-12-18T07:41:16;17.40;28.70
12060;DHT22;6091;51.432;6.880;2022-12-18T07:43:45;17.40;28.60
12060;DHT22;6091;51.432;6.880;2022-12-18T07:46:13;17.40;28.70
12060;DHT22;6091;51.432;6.880;2022-12-18T07:48:44;17.30;28.60
12060;DHT22;6091;51.432;6.880;2022-12-18T07:51:15;17.40;28.70
12060;DHT22;6091;51.432;6.880;2022-12-18T07:53:44;17.40;28.70
12060;DHT22;6091;51.432;6.880;2022-12-18T07:56:12;17.30;28.70
12060;DHT22;6091;51.432;6.880;2022-12-18T07:58:58;17.30;28.70
12060;DHT22;6091;51.432;6.880;2022-12-18T08:01:26;17.30;28.70
12060;DHT22;6091;51.432;6.880;2022-12-18T08:03:53;17.20;28.60
12060;DHT22;6091;51.432;6.880;2022-12-18T08:06:21;17.20;28.70
12060;DHT22;6091;51.432;6.880;2022-12-18T08:08:54;17.30;28.80
12060;DHT22;6091;51.432;6.880;2022-12-18T08:11:23;17.20;28.80
12060;DHT22;6091;51.432;6.880;2022-12-18T08:13:51;17.20;28.80
12060;DHT22;6091;51.432;6.880;2022-12-18T08:16:19;17.30;28.90
12060;DHT22;6091;51.432;6.880;2022-12-18T08:18:48;17.30;28.90
12060;DHT22;6091;51.432;6.880;2022-12-18T08:21:24;17.30;28.90
12060;DHT22;6091;51.432;6.880;2022-12-18T08:23:54;17.30;28.90
12060;DHT22;6091;51.432;6.880;2022-12-18T08:26:24;17.30;28.90
12060;DHT22;6091;51.432;6.880;2022-12-18T08:28:55;17.40;28.90
12060;DHT22;6091;51.432;6.880;2022-12-18T08:31:23;17.40;28.90
12060;DHT22;6091;51.432;6.880;2022-12-18T08:33:53;17.40;28.90
12060;DHT22;6091;51.432;6.880;2022-12-18T08:36:22;17.40;29.00
12060;DHT22;6091;51.432;6.880;2022-12-18T08:38:51;17.50;29.10
12060;DHT22;6091;51.432;6.880;2022-12-18T08:41:20;17.50;29.10
12060;DHT22;6091;51.432;6.880;2022-12-18T08:43:47;17.50;29.30
12060;DHT22;6091;51.432;6.880;2022-12-18T08:46:38;17.60;29.40
12060;DHT22;6091;51.432;6.880;2022-12-18T08:49:08;17.70;29.60
12060;DHT22;6091;51.432;6.880;2022-12-18T08:51:37;17.80;29.60
12060;DHT22;6091;51.432;6.880;2022-12-18T08:54:05;17.90;29.80
12060;DHT22;6091;51.432;6.880;2022-12-18T08:56:33;18.10;29.90
12060;DHT22;6091;51.432;6.880;2022-12-18T08:59:01;18.20;30.00
12060;DHT22;6091;51.432;6.880;2022-12-18T09:01:28;18.40;30.00
12060;DHT22;6091;51.432;6.880;2022-12-18T09:03:56;18.50;30.00
12060;DHT22;6091;51.432;6.880;2022-12-18T09:06:23;18.70;30.10
12060;DHT22;6091;51.432;6.880;2022-12-18T09:08:51;18.90;30.20
12060;DHT22;6091;51.432;6.880;2022-12-18T09:11:24;19.10;30.20
12060;DHT22;6091;51.432;6.880;2022-12-18T09:13:53;19.20;30.20
12060;DHT22;6091;51.432;6.880;2022-12-18T09:16:22;19.40;30.30
12060;DHT22;6091;51.432;6.880;2022-12-18T09:18:58;19.60;30.30
12060;DHT22;6091;51.432;6.880;2022-12-18T09:21:29;19.80;30.30
12060;DHT22;6091;51.432;6.880;2022-12-18T09:24:03;19.90;30.20
12060;DHT22;6091;51.432;6.880;2022-12-18T09:26:34;20.10;30.20
12060;DHT22;6091;51.432;6.880;2022-12-18T09:29:02;20.20;30.10
12060;DHT22;6091;51.432;6.880;2022-12-18T09:31:30;20.30;30.10
12060;DHT22;6091;51.432;6.880;2022-12-18T09:33:57;20.50;30.00
12060;DHT22;6091;51.432;6.880;2022-12-18T09:36:23;20.60;30.00
12060;DHT22;6091;51.432;6.880;2022-12-18T09:38:51;20.70;30.00
12060;DHT22;6091;51.432;6.880;2022-12-18T09:49:52;21.20;29.70
12060;DHT22;6091;51.432;6.880;2022-12-18T09:52:45;21.40;29.70
12060;DHT22;6091;51.432;6.880;2022-12-18T09:55:29;21.50;29.70
12060;DHT22;6091;51.432;6.880;2022-12-18T09:58:18;21.50;29.60
12060;DHT22;6091;51.432;6.880;2022-12-18T10:00:54;21.60;29.50
12060;DHT22;6091;51.432;6.880;2022-12-18T10:03:21;21.70;29.70
12060;DHT22;6091;51.432;6.880;2022-12-18T10:09:01;21.80;29.70
12060;DHT22;6091;51.432;6.880;2022-12-18T10:12:08;21.90;29.50
12060;DHT22;6091;51.432;6.880;2022-12-18T10:17:46;22.10;29.50
12060;DHT22;6091;51.432;6.880;2022-12-18T10:26:10;22.30;29.30
12060;DHT22;6091;51.432;6.880;2022-12-18T10:28:41;22.40;29.30
12060;DHT22;6091;51.432;6.880;2022-12-18T10:31:18;22.30;29.40
12060;DHT22;6091;51.432;6.880;2022-12-18T10:33:50;22.40;29.20
12060;DHT22;6091;51.432;6.880;2022-12-18T10:36:23;22.40;29.30
12060;DHT22;6091;51.432;6.880;2022-12-18T10:39:14;22.50;29.30
12060;DHT22;6091;51.432;6.880;2022-12-18T10:41:46;22.60;29.00
12060;DHT22;6091;51.432;6.880;2022-12-18T10:44:21;22.60;29.40
12060;DHT22;6091;51.432;6.880;2022-12-18T10:47:06;22.70;29.10
12060;DHT22;6091;51.432;6.880;2022-12-18T10:49:48;22.80;29.00
12060;DHT22;6091;51.432;6.880;2022-12-18T10:52:20;22.80;29.00
12060;DHT22;6091;51.432;6.880;2022-12-18T10:55:01;22.90;29.20
12060;DHT22;6091;51.432;6.880;2022-12-18T10:57:31;22.90;29.10
12060;DHT22;6091;51.432;6.880;2022-12-18T11:00:26;23.00;29.10
12060;DHT22;6091;51.432;6.880;2022-12-18T11:02:55;23.00;28.80
12060;DHT22;6091;51.432;6.880;2022-12-18T11:08:00;23.10;28.90
12060;DHT22;6091;51.432;6.880;2022-12-18T11:13:26;23.10;28.70
12060;DHT22;6091;51.432;6.880;2022-12-18T11:15:55;23.20;28.60
12060;DHT22;6091;51.432;6.880;2022-12-18T11:18:29;23.20;28.90
12060;DHT22;6091;51.432;6.880;2022-12-18T11:21:08;23.20;28.70
12060;DHT22;6091;51.432;6.880;2022-12-18T11:23:46;23.30;28.70
12060;DHT22;6091;51.432;6.880;2022-12-18T11:26:16;23.30;28.60
12060;DHT22;6091;51.432;6.880;2022-12-18T11:28:46;23.30;28.80
12060;DHT22;6091;51.432;6.880;2022-12-18T11:34:01;22.90;28.40
12060;DHT22;6091;51.432;6.880;2022-12-18T11:36:58;23.30;28.50
12060;DHT22;6091;51.432;6.880;2022-12-18T11:39:40;23.40;28.70
12060;DHT22;6091;51.432;6.880;2022-12-18T11:42:45;23.40;28.50
12060;DHT22;6091;51.432;6.880;2022-12-18T11:45:43;23.40;28.40
12060;DHT22;6091;51.432;6.880;2022-12-18T11:50:56;23.50;28.50
12060;DHT22;6091;51.432;6.880;2022-12-18T11:53:26;23.50;28.60
12060;DHT22;6091;51.432;6.880;2022-12-18T12:00:11;23.50;28.30
12060;DHT22;6091;51.432;6.880;2022-12-18T12:03:19;23.40;28.30
12060;DHT22;6091;51.432;6.880;2022-12-18T12:17:45;23.60;28.20
12060;DHT22;6091;51.432;6.880;2022-12-18T12:23:16;23.60;28.30
12060;DHT22;6091;51.432;6.880;2022-12-18T12:38:25;23.70;28.30
12060;DHT22;6091;51.432;6.880;2022-12-18T12:41:09;23.70;28.30
12060;DHT22;6091;51.432;6.880;2022-12-18T12:44:03;23.80;28.40
12060;DHT22;6091;51.432;6.880;2022-12-18T12:46:37;23.80;28.50
12060;DHT22;6091;51.432;6.880;2022-12-18T12:49:29;23.80;28.40
12060;DHT22;6091;51.432;6.880;2022-12-18T12:52:12;23.80;28.30
12060;DHT22;6091;51.432;6.880;2022-12-18T12:54:44;23.80;28.20
12060;DHT22;6091;51.432;6.880;2022-12-18T12:57:26;23.80;28.40
12060;DHT22;6091;51.432;6.880;2022-12-18T13:00:19;23.80;28.20
12060;DHT22;6091;51.432;6.880;2022-12-18T13:05:54;23.90;28.40
12060;DHT22;6091;51.432;6.880;2022-12-18T13:08:30;24.00;28.30
12060;DHT22;6091;51.432;6.880;2022-12-18T13:11:02;24.00;28.40
12060;DHT22;6091;51.432;6.880;2022-12-18T13:14:24;24.00;28.40
12060;DHT22;6091;51.432;6.880;2022-12-18T13:19:41;24.00;28.30
12060;DHT22;6091;51.432;6.880;2022-12-18T13:22:28;23.90;28.50
12060;DHT22;6091;51.432;6.880;2022-12-18T13:25:00;24.00;28.50
12060;DHT22;6091;51.432;6.880;2022-12-18T13:41:04;24.10;28.30
12060;DHT22;6091;51.432;6.880;2022-12-18T13:43:55;24.10;28.40
12060;DHT22;6091;51.432;6.880;2022-12-18T13:46:49;24.10;28.40
12060;DHT22;6091;51.432;6.880;2022-12-18T13:52:18;24.10;28.20
12060;DHT22;6091;51.432;6.880;2022-12-18T13:54:53;24.20;28.30
12060;DHT22;6091;51.432;6.880;2022-12-18T13:57:31;24.20;28.30
12060;DHT22;6091;51.432;6.880;2022-12-18T14:00:23;24.20;28.20
12060;DHT22;6091;51.432;6.880;2022-12-18T14:02:51;24.20;28.10
12060;DHT22;6091;51.432;6.880;2022-12-18T14:05:30;24.20;28.20
12060;DHT22;6091;51.432;6.880;2022-12-18T14:08:12;24.20;28.10
12060;DHT22;6091;51.432;6.880;2022-12-18T14:10:43;24.10;28.00
12060;DHT22;6091;51.432;6.880;2022-12-18T14:13:28;24.10;28.20
12060;DHT22;6091;51.432;6.880;2022-12-18T14:16:00;24.10;28.10
12060;DHT22;6091;51.432;6.880;2022-12-18T14:21:40;24.10;28.20
12060;DHT22;6091;51.432;6.880;2022-12-18T14:24:17;24.10;28.30
12060;DHT22;6091;51.432;6.880;2022-12-18T14:26:47;24.10;28.40
12060;DHT22;6091;51.432;6.880;2022-12-18T14:29:28;24.20;28.40
12060;DHT22;6091;51.432;6.880;2022-12-18T14:34:47;24.20;28.20
12060;DHT22;6091;51.432;6.880;2022-12-18T14:37:22;24.20;28.30
12060;DHT22;6091;51.432;6.880;2022-12-18T14:39:58;24.30;28.30
12060;DHT22;6091;51.432;6.880;2022-12-18T14:42:36;24.20;28.20
12060;DHT22;6091;51.432;6.880;2022-12-18T14:45:32;24.30;28.30
12060;DHT22;6091;51.432;6.880;2022-12-18T14:50:39;24.30;28.20
12060;DHT22;6091;51.432;6.880;2022-12-18T14:53:20;24.30;28.20
12060;DHT22;6091;51.432;6.880;2022-12-18T14:55:50;24.40;28.20
12060;DHT22;6091;51.432;6.880;2022-12-18T14:58:18;24.30;28.20
12060;DHT22;6091;51.432;6.880;2022-12-18T15:00:45;24.30;28.20
12060;DHT22;6091;51.432;6.880;2022-12-18T15:03:18;24.30;28.10
12060;DHT22;6091;51.432;6.880;2022-12-18T15:05:48;24.30;28.10
12060;DHT22;6091;51.432;6.880;2022-12-18T15:08:36;24.30;28.20
12060;DHT22;6091;51.432;6.880;2022-12-18T15:11:34;24.40;28.10
12060;DHT22;6091;51.432;6.880;2022-12-18T15:17:04;24.50;28.10
12060;DHT22;6091;51.432;6.880;2022-12-18T15:19:44;24.50;28.10
12060;DHT22;6091;51.432;6.880;2022-12-18T15:22:27;24.50;28.00
12060;DHT22;6091;51.432;6.880;2022-12-18T15:24:57;24.50;27.80
12060;DHT22;6091;51.432;6.880;2022-12-18T15:27:30;24.60;28.00
12060;DHT22;6091;51.432;6.880;2022-12-18T15:32:38;24.60;27.80
12060;DHT22;6091;51.432;6.880;2022-12-18T15:35:16;24.50;28.00
12060;DHT22;6091;51.432;6.880;2022-12-18T15:37:45;24.50;27.70
12060;DHT22;6091;51.432;6.880;2022-12-18T15:40:18;24.50;27.70
12060;DHT22;6091;51.432;6.880;2022-12-18T15:42:53;24.50;27.60
12060;DHT22;6091;51.432;6.880;2022-12-18T15:45:40;24.50;27.60
12060;DHT22;6091;51.432;6.880;2022-12-18T15:48:27;24.40;27.50
12060;DHT22;6091;51.432;6.880;2022-12-18T15:50:56;24.40;27.40
12060;DHT22;6091;51.432;6.880;2022-12-18T15:53:29;24.30;27.40
12060;DHT22;6091;51.432;6.880;2022-12-18T15:55:59;24.30;27.40
12060;DHT22;6091;51.432;6.880;2022-12-18T15:58:44;24.20;27.40
12060;DHT22;6091;51.432;6.880;2022-12-18T16:01:25;24.10;27.30
12060;DHT22;6091;51.432;6.880;2022-12-18T16:03:54;24.00;27.30
12060;DHT22;6091;51.432;6.880;2022-12-18T16:06:22;24.00;27.30
12060;DHT22;6091;51.432;6.880;2022-12-18T16:08:50;23.90;27.20
12060;DHT22;6091;51.432;6.880;2022-12-18T16:11:21;23.80;27.20
12060;DHT22;6091;51.432;6.880;2022-12-18T16:14:18;23.70;27.10
12060;DHT22;6091;51.432;6.880;2022-12-18T16:16:49;23.70;27.20
12060;DHT22;6091;51.432;6.880;2022-12-18T16:19:18;23.60;27.10
12060;DHT22;6091;51.432;6.880;2022-12-18T16:21:46;23.50;27.10
12060;DHT22;6091;51.432;6.880;2022-12-18T16:24:20;23.40;27.10
12060;DHT22;6091;51.432;6.880;2022-12-18T16:26:48;23.30;27.00
12060;DHT22;6091;51.432;6.880;2022-12-18T16:29:18;23.20;27.00
12060;DHT22;6091;51.432;6.880;2022-12-18T16:31:51;23.10;27.00
12060;DHT22;6091;51.432;6.880;2022-12-18T16:34:30;23.10;27.50
12060;DHT22;6091;51.432;6.880;2022-12-18T16:37:06;23.00;26.90
12060;DHT22;6091;51.432;6.880;2022-12-18T16:39:35;22.90;26.90
12060;DHT22;6091;51.432;6.880;2022-12-18T16:42:15;22.80;26.90
12060;DHT22;6091;51.432;6.880;2022-12-18T16:44:49;22.70;26.90
12060;DHT22;6091;51.432;6.880;2022-12-18T16:47:16;22.70;26.90
12060;DHT22;6091;51.432;6.880;2022-12-18T16:49:44;22.60;26.90
12060;DHT22;6091;51.432;6.880;2022-12-18T16:52:12;22.50;26.90
12060;DHT22;6091;51.432;6.880;2022-12-18T16:54:40;22.40;26.90
12060;DHT22;6091;51.432;6.880;2022-12-18T16:57:10;22.30;26.80
12060;DHT22;6091;51.432;6.880;2022-12-18T16:59:39;22.20;26.90
12060;DHT22;6091;51.432;6.880;2022-12-18T17:02:16;22.20;26.90
12060;DHT22;6091;51.432;6.880;2022-12-18T17:04:52;22.10;26.90
12060;DHT22;6091;51.432;6.880;2022-12-18T17:07:21;22.00;26.90
12060;DHT22;6091;51.432;6.880;2022-12-18T17:09:49;21.90;26.80
12060;DHT22;6091;51.432;6.880;2022-12-18T17:12:17;21.90;26.90
12060;DHT22;6091;51.432;6.880;2022-12-18T17:14:44;21.80;26.90
12060;DHT22;6091;51.432;6.880;2022-12-18T17:17:12;21.70;26.90
12060;DHT22;6091;51.432;6.880;2022-12-18T17:19:49;21.60;26.80
12060;DHT22;6091;51.432;6.880;2022-12-18T17:22:18;21.60;26.90
12060;DHT22;6091;51.432;6.880;2022-12-18T17:24:46;21.50;26.90
12060;DHT22;6091;51.432;6.880;2022-12-18T17:27:14;21.50;26.90
12060;DHT22;6091;51.432;6.880;2022-12-18T17:29:41;21.40;26.90
12060;DHT22;6091;51.432;6.880;2022-12-18T17:32:13;21.30;26.90
12060;DHT22;6091;51.432;6.880;2022-12-18T17:34:41;21.30;27.00
12060;DHT22;6091;51.432;6.880;2022-12-18T17:37:08;21.20;26.90
12060;DHT22;6091;51.432;6.880;2022-12-18T17:39:36;21.20;27.00
12060;DHT22;6091;51.432;6.880;2022-12-18T17:42:03;21.10;26.90
12060;DHT22;6091;51.432;6.880;2022-12-18T17:44:31;21.00;26.90
12060;DHT22;6091;51.432;6.880;2022-12-18T17:46:59;21.00;26.90
12060;DHT22;6091;51.432;6.880;2022-12-18T17:49:27;21.00;27.00
12060;DHT22;6091;51.432;6.880;2022-12-18T17:51:54;20.90;27.00
12060;DHT22;6091;51.432;6.880;2022-12-18T17:54:21;20.90;27.00
12060;DHT22;6091;51.432;6.880;2022-12-18T17:56:48;20.80;27.00
12060;DHT22;6091;51.432;6.880;2022-12-18T17:59:16;20.80;27.00
12060;DHT22;6091;51.432;6.880;2022-12-18T18:01:43;20.80;27.10
12060;DHT22;6091;51.432;6.880;2022-12-18T18:04:11;20.80;27.10
12060;DHT22;6091;51.432;6.880;2022-12-18T18:06:39;20.70;27.10
12060;DHT22;6091;51.432;6.880;2022-12-18T18:09:07;20.60;27.10
12060;DHT22;6091;51.432;6.880;2022-12-18T18:11:46;20.70;27.20
12060;DHT22;6091;51.432;6.880;2022-12-18T18:14:32;20.60;27.20
12060;DHT22;6091;51.432;6.880;2022-12-18T18:16:59;20.60;27.30
12060;DHT22;6091;51.432;6.880;2022-12-18T18:19:31;20.50;27.30
12060;DHT22;6091;51.432;6.880;2022-12-18T18:21:59;20.50;27.30
12060;DHT22;6091;51.432;6.880;2022-12-18T18:24:27;20.50;27.40
12060;DHT22;6091;51.432;6.880;2022-12-18T18:26:54;20.40;27.30
12060;DHT22;6091;51.432;6.880;2022-12-18T18:29:23;20.40;27.40
12060;DHT22;6091;51.432;6.880;2022-12-18T18:31:52;20.40;27.40
12060;DHT22;6091;51.432;6.880;2022-12-18T18:34:25;20.30;27.30